createdAt,value
2022-12-17T00:29:53.076Z,0
2022-12-17T00:30:33.562Z,0
2022-12-17T00:31:14.061Z,0
2022-12-17T00:31:54.553Z,0
2022-12-17T00:32:34.978Z,0
2022-12-17T00:33:15.449Z,0
2022-12-17T00:33:55.946Z,0
2022-12-17T00:34:36.445Z,0
2022-12-17T00:35:16.914Z,0
2022-12-17T00:35:57.394Z,0
2022-12-17T00:36:37.880Z,0
2022-12-17T00:42:43.269Z,0
2022-12-17T00:43:23.778Z,0
2022-12-17T00:44:04.262Z,0
2022-12-17T00:44:44.732Z,0
2022-12-17T00:45:25.249Z,0
2022-12-17T00:46:05.708Z,0
2022-12-17T00:46:46.251Z,0
2022-12-17T00:47:26.675Z,0
2022-12-17T00:48:47.724Z,0
2022-12-17T00:56:13.092Z,0
2022-12-17T00:56:53.591Z,0
2022-12-17T00:57:34.116Z,0
2022-12-17T00:58:14.551Z,0
2022-12-17T00:58:55.099Z,0
2022-12-17T00:59:35.609Z,0
2022-12-17T01:00:16.118Z,0
2022-12-17T01:00:56.613Z,0
2022-12-17T01:01:37.226Z,0
2022-12-17T01:02:58.184Z,0
2022-12-17T01:09:42.904Z,0
2022-12-17T01:10:23.378Z,0
2022-12-17T01:11:03.970Z,0
2022-12-17T01:11:44.486Z,0
2022-12-17T01:12:24.970Z,0
2022-12-17T01:13:05.450Z,0
2022-12-17T01:13:45.925Z,0
2022-12-17T01:14:26.498Z,0
2022-12-17T01:15:06.957Z,0
2022-12-17T01:15:47.433Z,0
2022-12-17T01:16:28.003Z,0
2022-12-17T01:23:12.850Z,0
2022-12-17T01:23:53.372Z,0
2022-12-17T01:24:33.843Z,0
2022-12-17T01:25:14.358Z,0
2022-12-17T01:25:54.860Z,0
2022-12-17T01:26:35.369Z,0
2022-12-17T01:27:15.841Z,0
2022-12-17T01:27:56.320Z,0
2022-12-17T01:28:36.802Z,0
2022-12-17T01:29:17.284Z,0
2022-12-17T01:29:57.778Z,0
2022-12-17T01:37:23.187Z,0
2022-12-17T01:38:03.663Z,0
2022-12-17T01:38:44.153Z,0
2022-12-17T01:39:24.815Z,0
2022-12-17T01:40:05.311Z,0
2022-12-17T01:40:45.800Z,0
2022-12-17T01:41:26.283Z,0
2022-12-17T01:42:06.774Z,0
2022-12-17T01:42:47.255Z,0
2022-12-17T01:43:27.718Z,0
2022-12-17T01:49:32.924Z,0
2022-12-17T01:50:13.459Z,0
2022-12-17T01:50:53.917Z,0
2022-12-17T01:51:34.420Z,0
2022-12-17T01:52:14.882Z,0
2022-12-17T01:52:55.381Z,0
2022-12-17T01:53:36.271Z,0
2022-12-17T01:54:16.378Z,0
2022-12-17T01:54:56.911Z,0
2022-12-17T01:55:37.351Z,0
2022-12-17T01:56:17.901Z,0
2022-12-17T02:03:03.027Z,0
2022-12-17T02:03:43.339Z,0
2022-12-17T02:04:23.827Z,0
2022-12-17T02:05:04.354Z,0
2022-12-17T02:05:44.815Z,0
2022-12-17T02:06:25.285Z,0
2022-12-17T02:07:05.811Z,0
2022-12-17T02:07:46.330Z,0
2022-12-17T02:08:26.768Z,0
2022-12-17T02:09:07.274Z,0
2022-12-17T02:09:47.730Z,0
2022-12-17T02:17:13.161Z,0
2022-12-17T02:17:53.649Z,0
2022-12-17T02:18:34.183Z,0
2022-12-17T02:19:14.645Z,0
2022-12-17T02:19:55.129Z,0
2022-12-17T02:20:35.617Z,0
2022-12-17T02:21:16.146Z,0
2022-12-17T02:21:56.639Z,0
2022-12-17T02:22:37.145Z,0
2022-12-17T02:23:17.687Z,0
2022-12-17T02:30:43.112Z,0
2022-12-17T02:31:23.605Z,0
2022-12-17T02:32:04.124Z,0
2022-12-17T02:32:44.568Z,0
2022-12-17T02:33:25.046Z,0
2022-12-17T02:34:05.574Z,0
2022-12-17T02:34:45.993Z,0
2022-12-17T02:35:26.461Z,0
2022-12-17T02:36:06.932Z,0
2022-12-17T02:36:47.420Z,0
2022-12-17T02:37:27.917Z,0
2022-12-17T02:44:12.850Z,0
2022-12-17T02:44:53.308Z,0
2022-12-17T02:45:33.817Z,0
2022-12-17T02:46:14.295Z,0
2022-12-17T02:46:54.708Z,0
2022-12-17T02:47:35.182Z,0
2022-12-17T02:48:15.661Z,0
2022-12-17T02:48:56.143Z,0
2022-12-17T02:49:36.650Z,0
2022-12-17T02:50:17.155Z,0
2022-12-17T02:50:57.561Z,0
2022-12-17T02:51:38.043Z,0
2022-12-17T02:58:22.881Z,0
2022-12-17T02:59:03.310Z,0
2022-12-17T02:59:43.799Z,0
2022-12-17T03:00:24.277Z,0
2022-12-17T03:01:04.835Z,0
2022-12-17T03:01:46.273Z,0
2022-12-17T03:02:26.770Z,0
2022-12-17T03:03:07.186Z,0
2022-12-17T03:03:50.375Z,0
2022-12-17T03:11:53.250Z,0
2022-12-17T03:12:33.754Z,0
2022-12-17T03:13:14.210Z,0
2022-12-17T03:13:54.719Z,0
2022-12-17T03:14:35.184Z,0
2022-12-17T03:15:56.170Z,0
2022-12-17T03:16:37.870Z,0
2022-12-17T03:17:17.133Z,0
2022-12-17T03:17:57.640Z,0
2022-12-17T03:18:38.138Z,0
2022-12-17T03:25:22.970Z,0
2022-12-17T03:26:03.481Z,0
2022-12-17T03:26:43.944Z,0
2022-12-17T03:27:24.418Z,0
2022-12-17T03:28:04.910Z,0
2022-12-17T03:28:45.383Z,0
2022-12-17T03:29:25.877Z,0
2022-12-17T03:30:06.356Z,0
2022-12-17T03:30:49.038Z,0
2022-12-17T03:31:27.361Z,0
2022-12-17T03:32:07.803Z,0
2022-12-17T03:39:33.093Z,0
2022-12-17T03:40:13.566Z,0
2022-12-17T03:40:54.031Z,0
2022-12-17T03:41:34.497Z,0
2022-12-17T03:42:14.987Z,0
2022-12-17T03:42:55.452Z,0
2022-12-17T03:43:36.338Z,0
2022-12-17T03:44:16.395Z,0
2022-12-17T03:44:56.906Z,0
2022-12-17T03:45:37.380Z,0
2022-12-17T03:47:49.957Z,0
2022-12-17T03:50:02.507Z,0
2022-12-17T03:50:42.952Z,0
2022-12-17T03:51:23.485Z,0
2022-12-17T03:52:03.896Z,0
2022-12-17T03:52:44.406Z,0
2022-12-17T03:53:24.830Z,0
2022-12-17T03:54:05.267Z,0
2022-12-17T03:54:45.745Z,0
2022-12-17T03:55:26.317Z,0
2022-12-17T03:56:06.742Z,0
2022-12-17T03:56:47.134Z,0
2022-12-17T04:04:12.433Z,0
2022-12-17T04:04:52.928Z,0
2022-12-17T04:05:33.403Z,0
2022-12-17T04:06:13.896Z,0
2022-12-17T04:06:54.403Z,0
2022-12-17T04:07:34.874Z,0
2022-12-17T04:08:15.347Z,0
2022-12-17T04:11:44.181Z,0
2022-12-17T04:12:24.610Z,0
2022-12-17T04:13:05.074Z,0
2022-12-17T04:13:45.834Z,0
2022-12-17T04:19:09.400Z,0
2022-12-17T04:19:49.818Z,0
2022-12-17T04:20:30.293Z,0
2022-12-17T04:21:10.781Z,0
2022-12-17T04:21:51.251Z,0
2022-12-17T04:22:31.732Z,0
2022-12-17T04:23:12.182Z,0
2022-12-17T04:23:52.645Z,0
2022-12-17T04:24:33.109Z,0
2022-12-17T04:25:13.624Z,0
2022-12-17T04:25:54.059Z,0
2022-12-17T04:31:59.342Z,0
2022-12-17T04:32:39.774Z,0
2022-12-17T04:33:20.245Z,0
2022-12-17T04:34:00.728Z,0
2022-12-17T04:34:41.187Z,0
2022-12-17T04:35:21.711Z,0
2022-12-17T04:36:02.220Z,0
2022-12-17T04:36:42.733Z,0
2022-12-17T04:37:23.189Z,0
2022-12-17T04:38:03.740Z,0
2022-12-17T04:38:44.180Z,0
2022-12-17T04:46:09.499Z,0
2022-12-17T04:46:49.947Z,0
2022-12-17T04:47:30.421Z,0
2022-12-17T04:48:10.867Z,0
2022-12-17T04:48:51.356Z,0
2022-12-17T04:49:31.871Z,0
2022-12-17T04:50:12.323Z,0
2022-12-17T04:50:52.765Z,0
2022-12-17T04:51:33.337Z,0
2022-12-17T04:52:13.705Z,0
2022-12-17T04:52:54.195Z,0
2022-12-17T04:59:39.084Z,0
2022-12-17T05:00:19.596Z,0
2022-12-17T05:01:00.054Z,0
2022-12-17T05:01:40.649Z,0
2022-12-17T05:02:21.144Z,0
2022-12-17T05:03:01.642Z,0
2022-12-17T05:03:42.106Z,0
2022-12-17T05:04:22.461Z,0
2022-12-17T05:05:02.930Z,0
2022-12-17T05:05:43.395Z,0
2022-12-17T05:06:23.876Z,0
2022-12-17T05:07:04.401Z,0
2022-12-17T05:13:49.203Z,0
2022-12-17T05:14:29.721Z,0
2022-12-17T05:15:10.210Z,0
2022-12-17T05:15:53.223Z,0
2022-12-17T05:16:31.191Z,0
2022-12-17T05:17:11.609Z,0
2022-12-17T05:17:52.089Z,0
2022-12-17T05:18:32.617Z,0
2022-12-17T05:19:13.054Z,0
2022-12-17T05:19:53.549Z,0
2022-12-17T05:20:34.010Z,0
2022-12-17T05:24:13.579Z,0
2022-12-17T05:24:53.985Z,0
2022-12-17T05:25:34.464Z,0
2022-12-17T05:26:14.930Z,0
2022-12-17T05:26:55.382Z,0
2022-12-17T05:27:35.835Z,0
2022-12-17T05:28:16.334Z,0
2022-12-17T05:28:56.802Z,0
2022-12-17T05:29:37.233Z,0
2022-12-17T05:30:17.753Z,0
2022-12-17T05:30:58.308Z,0
2022-12-17T05:38:23.474Z,0
2022-12-17T05:39:03.926Z,0
2022-12-17T05:39:44.577Z,0
2022-12-17T05:40:24.914Z,0
2022-12-17T05:41:05.395Z,0
2022-12-17T05:41:45.871Z,0
2022-12-17T05:42:26.334Z,0
2022-12-17T05:43:06.829Z,0
2022-12-17T05:43:47.282Z,0
2022-12-17T05:44:27.766Z,0
2022-12-17T05:45:08.223Z,0
2022-12-17T05:51:13.446Z,0
2022-12-17T05:51:53.912Z,0
2022-12-17T05:52:34.401Z,0
2022-12-17T06:32:19.422Z,0
2022-12-17T06:32:59.782Z,0
2022-12-17T06:33:40.962Z,0
2022-12-17T06:34:21.414Z,0
2022-12-17T06:37:34.993Z,0
2022-12-17T06:38:15.445Z,0
2022-12-17T06:38:55.935Z,0
2022-12-17T06:39:36.415Z,0
2022-12-17T06:40:16.894Z,0
2022-12-17T06:40:57.360Z,0
2022-12-17T06:41:37.922Z,0
2022-12-17T06:42:18.353Z,0
2022-12-17T06:42:58.797Z,0
2022-12-17T06:43:39.331Z,0
2022-12-17T06:44:19.757Z,0
2022-12-17T06:51:44.955Z,0
2022-12-17T06:52:25.459Z,0
2022-12-17T06:53:05.976Z,0
2022-12-17T06:53:46.441Z,0
2022-12-17T06:54:26.898Z,0
2022-12-17T06:55:07.401Z,0
2022-12-17T06:55:47.854Z,0
2022-12-17T06:56:28.342Z,0
2022-12-17T06:57:08.812Z,0
2022-12-17T06:57:50.579Z,0
2022-12-17T06:58:29.776Z,0
2022-12-17T07:05:54.975Z,0
2022-12-17T07:06:35.455Z,0
2022-12-17T07:07:15.953Z,0
2022-12-17T07:07:56.403Z,0
2022-12-17T07:08:36.874Z,0
2022-12-17T07:09:17.388Z,4
2022-12-17T07:09:57.842Z,4
2022-12-17T07:10:38.324Z,4
2022-12-17T07:11:18.808Z,0
2022-12-17T07:11:59.357Z,0
2022-12-17T07:12:39.810Z,0
2022-12-17T07:20:05.102Z,8
2022-12-17T07:20:45.593Z,4
2022-12-17T07:21:26.050Z,4
2022-12-17T07:22:06.556Z,4
2022-12-17T07:22:46.976Z,8
2022-12-17T07:23:27.461Z,8
2022-12-17T07:24:07.919Z,4
2022-12-17T07:24:48.406Z,8
2022-12-17T07:25:28.928Z,8
2022-12-17T07:26:09.391Z,8
2022-12-17T07:26:49.887Z,8
2022-12-17T07:33:34.954Z,16
2022-12-17T07:34:15.266Z,12
2022-12-17T07:34:55.708Z,16
2022-12-17T07:35:36.170Z,16
2022-12-17T07:36:16.694Z,16
2022-12-17T07:36:57.123Z,16
2022-12-17T07:37:37.615Z,20
2022-12-17T07:38:18.107Z,20
2022-12-17T07:38:58.556Z,20
2022-12-17T07:39:39.043Z,20
2022-12-17T07:40:19.508Z,24
2022-12-17T07:40:59.997Z,20
2022-12-17T07:47:44.817Z,32
2022-12-17T07:48:25.236Z,32
2022-12-17T07:49:05.746Z,32
2022-12-17T07:49:46.235Z,36
2022-12-17T07:50:26.781Z,36
2022-12-17T07:51:07.155Z,36
2022-12-17T07:51:47.657Z,36
2022-12-17T07:52:28.156Z,36
2022-12-17T07:53:08.606Z,40
2022-12-17T07:53:49.083Z,40
2022-12-17T07:54:29.597Z,40
2022-12-17T07:55:13.170Z,44
2022-12-17T08:01:55.038Z,56
2022-12-17T08:02:35.526Z,60
2022-12-17T08:03:15.867Z,56
2022-12-17T08:03:56.310Z,60
2022-12-17T08:04:36.832Z,60
2022-12-17T08:05:17.405Z,60
2022-12-17T08:05:57.848Z,64
2022-12-17T08:06:38.288Z,64
2022-12-17T08:07:18.749Z,64
2022-12-17T08:07:59.227Z,68
2022-12-17T08:08:39.762Z,68
2022-12-17T08:15:00.655Z,76
2022-12-17T08:15:41.168Z,76
2022-12-17T08:16:21.602Z,80
2022-12-17T08:17:02.170Z,80
2022-12-17T08:17:42.571Z,84
2022-12-17T08:18:26.611Z,80
2022-12-17T08:19:03.531Z,80
2022-12-17T08:19:43.979Z,84
2022-12-17T08:20:24.459Z,80
2022-12-17T08:21:04.924Z,84
2022-12-17T08:21:45.431Z,84
2022-12-17T08:29:10.598Z,96
2022-12-17T08:29:51.072Z,104
2022-12-17T08:30:33.315Z,104
2022-12-17T08:31:12.775Z,104
2022-12-17T08:31:53.183Z,108
2022-12-17T08:32:33.653Z,108
2022-12-17T08:33:14.143Z,108
2022-12-17T08:33:54.652Z,112
2022-12-17T08:34:35.101Z,112
2022-12-17T08:35:16.111Z,108
2022-12-17T08:36:40.816Z,108
2022-12-17T08:37:21.271Z,112
2022-12-17T08:38:01.830Z,112
2022-12-17T08:38:42.304Z,120
2022-12-17T08:39:22.803Z,124
2022-12-17T08:40:03.267Z,128
2022-12-17T08:40:43.739Z,124
2022-12-17T08:41:24.238Z,128
2022-12-17T08:42:04.977Z,132
2022-12-17T08:42:45.182Z,128
2022-12-17T08:43:25.652Z,132
2022-12-17T08:49:41.354Z,148
2022-12-17T08:50:22.014Z,144
2022-12-17T08:51:02.297Z,144
2022-12-17T08:51:42.810Z,144
2022-12-17T08:52:23.244Z,144
2022-12-17T08:53:03.716Z,148
2022-12-17T08:53:44.206Z,148
2022-12-17T08:54:24.688Z,156
2022-12-17T08:55:05.167Z,160
2022-12-17T08:55:45.682Z,160
2022-12-17T08:56:26.161Z,160
2022-12-17T09:03:11.420Z,160
2022-12-17T09:03:51.898Z,160
2022-12-17T09:04:32.393Z,168
2022-12-17T09:05:12.884Z,164
2022-12-17T09:05:53.385Z,168
2022-12-17T09:06:38.843Z,172
2022-12-17T09:07:14.468Z,172
2022-12-17T09:07:55.138Z,168
2022-12-17T09:08:35.630Z,164
2022-12-17T09:09:16.167Z,164
2022-12-17T09:15:21.333Z,188
2022-12-17T09:16:01.804Z,184
2022-12-17T09:16:42.312Z,180
2022-12-17T09:17:22.798Z,180
2022-12-17T09:18:43.847Z,172
2022-12-17T09:19:24.342Z,180
2022-12-17T09:20:04.822Z,180
2022-12-17T09:20:45.289Z,180
2022-12-17T09:21:25.807Z,180
2022-12-17T09:22:06.278Z,188
2022-12-17T09:28:51.379Z,216
2022-12-17T09:29:31.909Z,216
2022-12-17T09:30:12.459Z,220
2022-12-17T09:30:53.028Z,224
2022-12-17T09:31:37.134Z,228
2022-12-17T09:32:13.961Z,236
2022-12-17T09:32:54.446Z,236
2022-12-17T09:33:35.349Z,240
2022-12-17T09:34:15.440Z,240
2022-12-17T09:41:41.094Z,256
2022-12-17T09:42:21.627Z,260
2022-12-17T09:43:02.108Z,268
2022-12-17T09:43:42.617Z,272
2022-12-17T09:44:23.107Z,280
2022-12-17T09:45:03.742Z,288
2022-12-17T09:45:44.271Z,292
2022-12-17T09:46:24.827Z,292
2022-12-17T09:47:05.206Z,292
2022-12-17T09:47:45.738Z,296
2022-12-17T09:48:30.859Z,308
2022-12-17T09:55:11.221Z,284
2022-12-17T09:55:51.743Z,284
2022-12-17T09:56:32.201Z,284
2022-12-17T09:57:12.694Z,284
2022-12-17T09:57:53.227Z,292
2022-12-17T09:58:33.731Z,300
2022-12-17T09:59:14.233Z,308
2022-12-17T09:59:54.765Z,308
2022-12-17T10:00:35.267Z,304
2022-12-17T10:01:15.796Z,304
2022-12-17T10:01:56.382Z,304
2022-12-17T10:08:41.378Z,308
2022-12-17T10:09:21.867Z,308
2022-12-17T10:10:02.337Z,308
2022-12-17T10:10:42.828Z,308
2022-12-17T10:11:23.341Z,316
2022-12-17T10:12:44.470Z,332
2022-12-17T10:13:24.955Z,336
2022-12-17T10:14:05.467Z,328
2022-12-17T10:14:45.979Z,324
2022-12-17T10:21:31.134Z,324
2022-12-17T10:22:11.679Z,328
2022-12-17T10:22:52.171Z,320
2022-12-17T10:23:32.799Z,316
2022-12-17T10:24:18.410Z,320
2022-12-17T10:24:53.809Z,328
2022-12-17T10:25:34.231Z,332
2022-12-17T10:26:55.320Z,356
2022-12-17T10:27:35.778Z,356
2022-12-17T10:28:16.318Z,352
2022-12-17T10:35:05.148Z,372
2022-12-17T10:35:41.893Z,372
2022-12-17T10:36:22.412Z,384
2022-12-17T10:37:02.903Z,392
2022-12-17T10:37:43.412Z,400
2022-12-17T10:38:23.882Z,408
2022-12-17T10:39:04.372Z,412
2022-12-17T10:39:44.929Z,412
2022-12-17T10:40:25.486Z,408
2022-12-17T10:41:05.966Z,404
2022-12-17T10:48:31.349Z,484
2022-12-17T10:49:11.910Z,512
2022-12-17T10:49:52.337Z,544
2022-12-17T10:50:32.899Z,568
2022-12-17T10:51:13.388Z,592
2022-12-17T10:51:53.905Z,612
2022-12-17T10:52:34.361Z,596
2022-12-17T10:53:14.895Z,576
2022-12-17T10:53:55.320Z,564
2022-12-17T10:54:35.805Z,556
2022-12-17T10:55:16.300Z,548
2022-12-17T11:02:01.537Z,464
2022-12-17T11:02:42.077Z,472
2022-12-17T11:03:22.424Z,484
2022-12-17T11:04:02.971Z,496
2022-12-17T11:04:43.412Z,512
2022-12-17T11:05:23.919Z,524
2022-12-17T11:06:04.394Z,532
2022-12-17T11:06:44.894Z,524
2022-12-17T11:07:25.384Z,520
2022-12-17T11:08:05.921Z,504
2022-12-17T11:08:46.382Z,496
2022-12-17T11:14:51.068Z,568
2022-12-17T11:15:31.539Z,592
2022-12-17T11:16:12.192Z,592
2022-12-17T11:16:52.617Z,596
2022-12-17T11:17:33.158Z,588
2022-12-17T11:18:13.647Z,564
2022-12-17T11:18:54.166Z,552
2022-12-17T11:19:34.608Z,560
2022-12-17T11:20:15.180Z,568
2022-12-17T11:20:55.696Z,584
2022-12-17T11:21:36.203Z,600
2022-12-17T11:28:21.444Z,636
2022-12-17T11:29:02.000Z,676
2022-12-17T11:29:42.472Z,724
2022-12-17T11:30:26.286Z,744
2022-12-17T11:31:03.701Z,728
2022-12-17T11:31:44.161Z,764
2022-12-17T11:32:24.661Z,812
2022-12-17T11:33:05.295Z,852
2022-12-17T11:33:45.839Z,868
2022-12-17T11:34:26.463Z,920
2022-12-17T11:39:51.487Z,940
2022-12-17T11:40:32.090Z,876
2022-12-17T11:41:12.721Z,828
2022-12-17T11:41:54.099Z,812
2022-12-17T11:42:34.541Z,928
2022-12-17T11:43:15.008Z,916
2022-12-17T11:43:55.560Z,920
2022-12-17T11:44:36.015Z,940
2022-12-17T11:52:18.424Z,832
2022-12-17T11:52:59.500Z,804
2022-12-17T11:53:40.475Z,776
2022-12-17T11:54:21.499Z,772
2022-12-17T12:32:19.084Z,656
2022-12-17T12:32:59.655Z,652
2022-12-17T12:33:40.109Z,644
2022-12-17T12:34:20.699Z,648
2022-12-17T12:35:01.202Z,652
2022-12-17T12:35:41.702Z,648
2022-12-17T12:36:22.237Z,648
2022-12-17T12:37:02.707Z,644
2022-12-17T12:37:43.226Z,648
2022-12-17T12:38:23.903Z,652
2022-12-17T12:44:29.126Z,640
2022-12-17T12:45:09.674Z,640
2022-12-17T12:45:50.780Z,640
2022-12-17T12:46:31.672Z,640
2022-12-17T12:47:13.584Z,628
2022-12-17T12:47:53.603Z,628
2022-12-17T12:53:59.192Z,620
2022-12-17T12:54:39.803Z,620
2022-12-17T12:55:20.352Z,616
2022-12-17T12:56:01.200Z,616
2022-12-17T12:56:41.514Z,620
2022-12-17T13:00:18.003Z,608
2022-12-17T13:00:58.477Z,600
2022-12-17T13:01:39.188Z,600
2022-12-17T13:02:19.777Z,600
2022-12-17T13:03:00.249Z,604
2022-12-17T13:03:40.629Z,600
2022-12-17T13:04:21.114Z,600
2022-12-17T13:05:01.707Z,600
2022-12-17T13:05:42.211Z,596
2022-12-17T13:06:22.956Z,596
2022-12-17T13:12:27.832Z,568
2022-12-17T13:13:08.344Z,560
2022-12-17T13:13:48.808Z,560
2022-12-17T13:14:29.341Z,556
2022-12-17T13:15:09.785Z,552
2022-12-17T13:16:31.702Z,548
2022-12-17T13:17:12.283Z,544
2022-12-17T13:17:52.872Z,536
2022-12-17T13:24:41.011Z,520
2022-12-17T13:25:20.755Z,520
2022-12-17T13:26:01.406Z,516
2022-12-17T13:26:42.110Z,512
2022-12-17T13:27:22.412Z,508
2022-12-17T13:28:02.852Z,508
2022-12-17T13:28:43.521Z,508
2022-12-17T13:29:23.988Z,504
2022-12-17T13:30:04.509Z,504
2022-12-17T13:30:45.001Z,500
2022-12-17T13:37:46.877Z,488
2022-12-17T13:38:27.413Z,488
2022-12-17T13:39:07.873Z,488
2022-12-17T13:39:48.621Z,492
2022-12-17T13:40:28.923Z,492
2022-12-17T13:41:10.810Z,488
2022-12-17T13:41:50.645Z,488
2022-12-17T13:42:31.206Z,488
2022-12-17T13:43:11.657Z,484
2022-12-17T13:48:37.041Z,472
2022-12-17T13:49:17.276Z,472
2022-12-17T13:50:32.586Z,468
2022-12-17T13:50:38.156Z,472
2022-12-17T13:51:18.676Z,468
2022-12-17T13:51:59.248Z,468
2022-12-17T13:52:39.718Z,468
2022-12-17T13:53:20.171Z,464
2022-12-17T13:54:41.201Z,460
2022-12-17T13:55:21.661Z,460
2022-12-17T14:02:06.882Z,440
2022-12-17T14:02:47.401Z,436
2022-12-17T14:03:43.360Z,436
2022-12-17T14:04:08.373Z,432
2022-12-17T14:04:48.733Z,436
2022-12-17T14:05:29.193Z,432
2022-12-17T14:06:09.657Z,428
2022-12-17T14:06:50.182Z,428
2022-12-17T14:07:30.742Z,424
2022-12-17T14:08:11.213Z,420
2022-12-17T14:08:51.707Z,420
2022-12-17T14:15:36.788Z,404
2022-12-17T14:16:17.394Z,400
2022-12-17T14:16:57.917Z,400
2022-12-17T14:17:38.407Z,396
2022-12-17T14:18:18.956Z,392
2022-12-17T14:18:59.399Z,392
2022-12-17T14:19:39.894Z,388
2022-12-17T14:20:20.459Z,384
2022-12-17T14:21:00.882Z,388
2022-12-17T14:21:41.413Z,388
2022-12-17T14:22:21.912Z,392
2022-12-17T14:29:06.960Z,364
2022-12-17T14:29:47.452Z,356
2022-12-17T14:30:28.011Z,352
2022-12-17T14:34:22.155Z,344
2022-12-17T14:35:02.707Z,344
2022-12-17T14:35:43.257Z,340
2022-12-17T14:36:23.695Z,336
2022-12-17T14:37:04.209Z,332
2022-12-17T14:37:44.671Z,332
2022-12-17T14:38:37.320Z,332
2022-12-17T14:39:05.680Z,328
2022-12-17T14:39:46.189Z,324
2022-12-17T14:40:26.685Z,320
2022-12-17T14:41:07.217Z,316
2022-12-17T14:47:52.281Z,296
2022-12-17T14:48:32.738Z,296
2022-12-17T14:49:13.238Z,300
2022-12-17T14:49:55.538Z,300
2022-12-17T14:50:34.327Z,300
2022-12-17T14:51:14.862Z,292
2022-12-17T14:51:55.867Z,292
2022-12-17T14:52:36.409Z,288
2022-12-17T14:53:16.942Z,276
2022-12-17T14:58:41.879Z,268
2022-12-17T14:59:22.422Z,276
2022-12-17T15:00:03.000Z,284
2022-12-17T15:00:43.467Z,276
2022-12-17T15:01:24.094Z,272
2022-12-17T15:02:04.669Z,272
2022-12-17T15:02:45.144Z,272
2022-12-17T15:03:25.639Z,264
2022-12-17T15:04:05.980Z,252
2022-12-17T15:04:46.767Z,240
2022-12-17T15:09:07.263Z,176
2022-12-17T15:09:47.468Z,164
2022-12-17T15:10:27.982Z,156
2022-12-17T15:11:08.994Z,152
2022-12-17T15:11:49.484Z,148
2022-12-17T15:12:29.989Z,140
2022-12-17T15:13:10.514Z,132
2022-12-17T15:13:56.021Z,128
2022-12-17T15:14:31.490Z,120
2022-12-17T15:20:52.768Z,76
2022-12-17T15:21:34.091Z,68
2022-12-17T15:22:14.460Z,68
2022-12-17T15:22:54.961Z,64
2022-12-17T15:23:35.474Z,60
2022-12-17T15:24:15.966Z,56
2022-12-17T15:24:56.463Z,52
2022-12-17T15:25:41.860Z,52
2022-12-17T15:26:17.489Z,48
2022-12-17T15:32:22.722Z,28
2022-12-17T15:33:03.196Z,28
2022-12-17T15:33:43.803Z,24
2022-12-17T15:34:24.255Z,24
2022-12-17T15:35:04.683Z,20
2022-12-17T15:35:45.189Z,20
2022-12-17T15:36:25.712Z,16
2022-12-17T15:37:06.314Z,16
2022-12-17T15:37:46.771Z,16
2022-12-17T15:38:27.491Z,16
2022-12-17T15:44:09.508Z,4
2022-12-17T15:44:49.511Z,8
2022-12-17T15:45:29.150Z,4
2022-12-17T15:46:09.694Z,8
2022-12-17T15:46:50.140Z,4
2022-12-17T15:47:30.655Z,4
2022-12-17T15:48:11.266Z,4
2022-12-17T15:48:51.714Z,4
2022-12-17T15:49:32.206Z,4
2022-12-17T15:50:12.708Z,4
2022-12-17T15:56:58.743Z,0
2022-12-17T15:57:39.188Z,0
2022-12-17T15:58:19.725Z,0
2022-12-17T15:59:00.262Z,0
2022-12-17T15:59:40.753Z,0
2022-12-17T16:00:21.311Z,0
2022-12-17T16:01:02.490Z,0
2022-12-17T16:01:43.081Z,0
2022-12-17T16:07:48.201Z,0
2022-12-17T16:08:28.813Z,0
2022-12-17T16:09:09.289Z,0
2022-12-17T16:09:49.777Z,0
2022-12-17T16:10:30.335Z,0
2022-12-17T16:11:11.635Z,0
2022-12-17T16:11:52.144Z,0
2022-12-17T16:12:32.620Z,0
2022-12-17T16:19:18.030Z,0
2022-12-17T16:19:58.589Z,0
2022-12-17T16:20:39.243Z,0
2022-12-17T16:21:19.764Z,0
2022-12-17T16:22:00.250Z,0
2022-12-17T16:22:40.696Z,0
2022-12-17T16:23:21.220Z,0
2022-12-17T16:24:01.742Z,0
2022-12-17T16:24:42.359Z,0
2022-12-17T16:25:22.805Z,0
2022-12-17T16:32:07.739Z,0
2022-12-17T16:32:48.238Z,0
2022-12-17T16:33:32.542Z,0
2022-12-17T16:34:09.165Z,0
2022-12-17T16:34:49.825Z,0
2022-12-17T16:35:30.386Z,0
2022-12-17T16:36:10.861Z,0
2022-12-17T16:36:51.757Z,0
2022-12-17T16:37:32.322Z,0
2022-12-17T16:38:12.807Z,0
2022-12-17T16:44:58.061Z,0
2022-12-17T16:45:38.557Z,0
2022-12-17T16:46:19.161Z,0
2022-12-17T16:46:59.897Z,0
2022-12-17T16:47:40.113Z,0
2022-12-17T16:48:20.654Z,0
2022-12-17T16:49:01.144Z,0
2022-12-17T16:49:41.633Z,0
2022-12-17T16:50:22.110Z,0
2022-12-17T16:51:02.587Z,0
2022-12-17T16:51:43.121Z,0
2022-12-17T16:57:47.862Z,0
2022-12-17T16:58:28.298Z,0
2022-12-17T16:59:08.808Z,0
2022-12-17T16:59:49.272Z,0
2022-12-17T17:00:29.804Z,0
2022-12-17T17:01:10.350Z,0
2022-12-17T17:01:50.952Z,0
2022-12-17T17:02:31.524Z,0
2022-12-17T17:03:12.026Z,0
2022-12-17T17:03:52.402Z,0
2022-12-17T17:04:32.873Z,0
2022-12-17T17:11:17.969Z,0
2022-12-17T17:11:58.543Z,0
2022-12-17T17:12:38.985Z,0
2022-12-17T17:13:19.444Z,0
2022-12-17T17:13:59.952Z,0
2022-12-17T17:14:40.397Z,0
2022-12-17T17:15:20.871Z,0
2022-12-17T17:16:01.449Z,0
2022-12-17T17:16:42.477Z,0
2022-12-17T17:17:53.620Z,0
2022-12-17T17:23:27.770Z,0
2022-12-17T17:24:08.319Z,0
2022-12-17T17:24:48.811Z,0
2022-12-17T17:25:44.174Z,0
2022-12-17T17:26:09.751Z,0
2022-12-17T17:26:50.389Z,0
2022-12-17T17:27:30.873Z,0
2022-12-17T17:28:11.306Z,0
2022-12-17T17:28:51.830Z,0
2022-12-17T17:29:32.328Z,0
2022-12-17T17:30:12.845Z,0
2022-12-17T17:36:58.018Z,0
2022-12-17T17:37:38.458Z,0
2022-12-17T17:38:18.927Z,0
2022-12-17T17:38:59.455Z,0
2022-12-17T17:39:39.947Z,0
2022-12-17T17:40:20.411Z,0
2022-12-17T17:41:00.973Z,0
2022-12-17T17:41:41.412Z,0
2022-12-17T17:42:21.904Z,0
2022-12-17T17:43:02.450Z,0
2022-12-17T17:50:28.211Z,0
2022-12-17T17:51:08.687Z,0
2022-12-17T17:52:29.600Z,0
2022-12-17T17:53:10.132Z,0
2022-12-17T17:53:50.693Z,0
2022-12-17T17:54:32.009Z,0
2022-12-17T18:34:03.357Z,0
2022-12-17T18:34:43.829Z,0
2022-12-17T18:35:24.258Z,0
2022-12-17T18:36:04.708Z,0
2022-12-17T18:36:45.273Z,0
2022-12-17T18:37:25.676Z,0
2022-12-17T18:38:06.153Z,0
2022-12-17T18:38:46.708Z,0
2022-12-17T18:39:27.182Z,0
2022-12-17T18:40:07.712Z,0
2022-12-17T18:46:52.755Z,0
2022-12-17T18:47:33.224Z,0
2022-12-17T18:48:13.717Z,0
2022-12-17T18:48:54.251Z,0
2022-12-17T18:49:34.806Z,0
2022-12-17T18:50:15.365Z,0
2022-12-17T18:50:58.630Z,0
2022-12-17T18:51:36.356Z,0
2022-12-17T18:52:17.780Z,0
2022-12-17T18:57:42.772Z,0
2022-12-17T18:58:23.185Z,0
2022-12-17T18:59:03.693Z,0
2022-12-17T18:59:44.288Z,0
2022-12-17T19:00:24.835Z,0
2022-12-17T19:01:05.441Z,0
2022-12-17T19:01:45.999Z,0
2022-12-17T19:02:26.424Z,0
2022-12-17T19:03:06.854Z,0
2022-12-17T19:03:47.286Z,0
2022-12-17T19:11:13.124Z,0
2022-12-17T19:11:53.594Z,0
2022-12-17T19:12:34.145Z,0
2022-12-17T19:13:14.638Z,0
2022-12-17T19:13:55.160Z,0
2022-12-17T19:14:35.624Z,0
2022-12-17T19:15:16.136Z,0
2022-12-17T19:15:56.659Z,0
2022-12-17T19:16:37.219Z,0
2022-12-17T19:17:17.599Z,0
2022-12-17T19:24:02.898Z,0
2022-12-17T19:24:43.386Z,0
2022-12-17T19:25:23.883Z,0
2022-12-17T19:26:04.427Z,0
2022-12-17T19:26:45.815Z,0
2022-12-17T19:27:26.319Z,0
2022-12-17T19:28:06.835Z,0
2022-12-17T19:28:47.381Z,0
2022-12-17T19:32:06.625Z,0
2022-12-17T19:32:47.084Z,0
2022-12-17T19:33:27.524Z,0
2022-12-17T19:34:08.025Z,0
2022-12-17T19:34:49.240Z,0
2022-12-17T19:35:29.083Z,0
2022-12-17T19:36:09.604Z,0
2022-12-17T19:36:50.046Z,0
2022-12-17T19:37:30.635Z,0
2022-12-17T19:38:11.084Z,0
2022-12-17T19:38:51.564Z,0
2022-12-17T19:43:36.447Z,0
2022-12-17T19:44:16.948Z,0
2022-12-17T19:44:57.422Z,0
2022-12-17T19:45:37.994Z,0
2022-12-17T19:46:18.438Z,0
2022-12-17T19:46:58.938Z,0
2022-12-17T19:47:39.411Z,0
2022-12-17T19:48:19.899Z,0
2022-12-17T19:49:00.417Z,0
2022-12-17T19:49:40.930Z,0
2022-12-17T19:50:21.441Z,0
2022-12-17T19:57:06.588Z,0
2022-12-17T19:57:47.126Z,0
2022-12-17T19:58:27.633Z,0
2022-12-17T19:59:08.164Z,0
2022-12-17T19:59:48.693Z,0
2022-12-17T20:00:29.125Z,0
2022-12-17T20:01:10.046Z,0
2022-12-17T20:01:50.682Z,0
2022-12-17T20:02:32.933Z,0
2022-12-17T20:03:11.491Z,0
2022-12-17T20:10:53.481Z,0
2022-12-17T20:11:34.254Z,0
2022-12-17T20:12:14.607Z,0
2022-12-17T20:12:55.191Z,0
2022-12-17T20:13:35.729Z,0
2022-12-17T20:14:16.262Z,0